createdAt,value
2022-11-24T00:01:21.236Z,35.60
2022-11-24T00:04:04.899Z,42.93
2022-11-24T00:06:34.797Z,42.10
2022-11-24T00:09:03.630Z,39.73
2022-11-24T00:11:33.893Z,36.17
2022-11-24T00:14:01.593Z,37.43
2022-11-24T00:16:31.229Z,38.60
2022-11-24T00:19:00.230Z,35.97
2022-11-24T00:21:30.738Z,35.07
2022-11-24T00:23:58.045Z,45.70
2022-11-24T00:26:33.729Z,31.93
2022-11-24T00:29:04.551Z,33.77
2022-11-24T00:31:33.933Z,34.90
2022-11-24T00:34:04.688Z,38.37
2022-11-24T00:36:34.748Z,40.40
2022-11-24T00:39:12.372Z,30.40
2022-11-24T00:41:39.602Z,40.73
2022-11-24T00:44:06.751Z,32.50
2022-11-24T00:46:34.783Z,39.70
2022-11-24T00:49:01.890Z,39.97
2022-11-24T00:51:30.246Z,40.03
2022-11-24T00:53:58.583Z,40.43
2022-11-24T00:56:26.970Z,36.60
2022-11-24T00:58:53.830Z,38.40
2022-11-24T01:01:26.859Z,38.33
2022-11-24T01:03:55.358Z,34.23
2022-11-24T01:06:25.822Z,35.90
2022-11-24T01:08:53.262Z,37.40
2022-11-24T01:11:26.728Z,38.83
2022-11-24T01:13:58.567Z,36.67
2022-11-24T01:16:33.531Z,33.23
2022-11-24T01:19:01.336Z,39.60
2022-11-24T01:21:28.089Z,31.73
2022-11-24T01:23:54.966Z,40.90
2022-11-24T01:26:22.599Z,35.33
2022-11-24T01:28:55.308Z,40.20
2022-11-24T01:31:23.068Z,43.13
2022-11-24T01:33:50.325Z,39.40
2022-11-24T01:36:17.543Z,44.83
2022-11-24T01:38:44.320Z,35.93
2022-11-24T01:41:11.986Z,37.70
2022-11-24T01:43:40.011Z,40.67
2022-11-24T01:46:30.238Z,42.13
2022-11-24T01:49:18.192Z,35.67
2022-11-24T01:52:10.108Z,36.00
2022-11-24T01:54:52.684Z,37.67
2022-11-24T01:57:44.820Z,36.43
2022-11-24T02:00:14.635Z,32.60
2022-11-24T02:02:44.516Z,39.47
2022-11-24T02:05:23.330Z,37.50
2022-11-24T02:07:52.256Z,40.03
2022-11-24T02:10:18.991Z,39.00
2022-11-24T02:12:50.812Z,35.97
2022-11-24T02:15:18.839Z,34.53
2022-11-24T02:17:45.661Z,36.03
2022-11-24T02:20:14.601Z,40.67
2022-11-24T02:23:08.963Z,33.17
2022-11-24T02:26:07.880Z,37.90
2022-11-24T02:28:34.710Z,40.37
2022-11-24T02:31:03.163Z,33.30
2022-11-24T02:33:30.557Z,39.93
2022-11-24T02:35:57.458Z,35.87
2022-11-24T02:38:35.711Z,41.73
2022-11-24T02:41:11.712Z,35.40
2022-11-24T02:43:48.783Z,30.07
2022-11-24T02:46:15.575Z,35.83
2022-11-24T02:48:42.323Z,42.60
2022-11-24T02:51:09.416Z,33.27
2022-11-24T02:53:36.170Z,35.37
2022-11-24T02:56:03.468Z,33.07
2022-11-24T02:58:30.200Z,37.40
2022-11-24T03:00:58.034Z,33.97
2022-11-24T03:03:25.144Z,31.37
2022-11-24T03:05:52.091Z,32.60
2022-11-24T03:08:18.988Z,39.23
2022-11-24T03:10:45.782Z,33.93
2022-11-24T03:13:12.530Z,38.03
2022-11-24T03:15:39.363Z,35.17
2022-11-24T03:18:06.360Z,31.60
2022-11-24T03:20:33.309Z,35.80
2022-11-24T03:23:00.051Z,34.70
2022-11-24T03:25:26.816Z,27.77
2022-11-24T03:27:55.578Z,35.77
2022-11-24T03:30:22.306Z,34.30
2022-11-24T03:32:53.506Z,34.43
2022-11-24T03:35:21.925Z,30.67
2022-11-24T03:37:48.705Z,34.47
2022-11-24T03:40:17.894Z,28.20
2022-11-24T03:42:44.811Z,30.53
2022-11-24T03:45:37.915Z,29.67
2022-11-24T03:47:58.435Z,31.93
2022-11-24T03:50:25.245Z,33.70
2022-11-24T03:52:52.032Z,28.73
2022-11-24T03:55:18.867Z,29.47
2022-11-24T03:57:45.624Z,29.63
2022-11-24T04:00:12.720Z,30.77
2022-11-24T04:02:39.561Z,29.57
2022-11-24T04:05:07.443Z,28.10
2022-11-24T04:07:34.212Z,29.90
2022-11-24T04:10:01.015Z,34.63
2022-11-24T04:12:45.896Z,32.47
2022-11-24T04:15:18.868Z,31.83
2022-11-24T04:17:48.341Z,34.53
2022-11-24T04:20:16.510Z,37.10
2022-11-24T04:22:43.624Z,33.57
2022-11-24T04:25:11.253Z,32.70
2022-11-24T04:27:38.621Z,32.67
2022-11-24T04:30:07.199Z,31.73
2022-11-24T04:32:33.918Z,34.43
2022-11-24T04:35:00.685Z,29.73
2022-11-24T04:37:27.443Z,26.53
2022-11-24T04:39:55.151Z,30.60
2022-11-24T04:42:22.000Z,29.77
2022-11-24T04:44:48.744Z,27.47
2022-11-24T04:47:22.311Z,30.33
2022-11-24T04:49:50.005Z,35.30
2022-11-24T04:52:19.519Z,27.73
2022-11-24T04:54:47.586Z,33.10
2022-11-24T04:57:21.015Z,32.10
2022-11-24T04:59:48.595Z,32.23
2022-11-24T05:02:15.296Z,29.13
2022-11-24T05:04:42.288Z,28.63
2022-11-24T05:07:18.791Z,27.13
2022-11-24T05:10:05.711Z,39.07
2022-11-24T05:12:32.559Z,31.47
2022-11-24T05:15:01.209Z,29.50
2022-11-24T05:17:37.454Z,30.43
2022-11-24T05:20:06.807Z,30.67
2022-11-24T05:22:33.641Z,32.50
2022-11-24T05:25:00.339Z,31.47
2022-11-24T05:27:27.421Z,32.50
2022-11-24T05:29:54.114Z,35.33
2022-11-24T05:32:20.900Z,33.53
2022-11-24T05:34:47.924Z,29.67
2022-11-24T05:37:14.651Z,30.87
2022-11-24T05:39:41.323Z,32.47
2022-11-24T05:42:27.399Z,31.20
2022-11-24T05:44:54.342Z,32.03
2022-11-24T05:47:21.926Z,33.20
2022-11-24T05:49:48.708Z,28.73
2022-11-24T05:52:16.761Z,31.07
2022-11-24T05:54:43.642Z,32.17
2022-11-24T05:57:10.337Z,30.83
2022-11-24T05:59:37.226Z,29.43
2022-11-24T06:02:04.049Z,30.20
2022-11-24T06:04:31.931Z,36.90
2022-11-24T06:06:58.954Z,32.30
2022-11-24T06:09:25.609Z,35.57
2022-11-24T06:11:52.262Z,30.17
2022-11-24T06:14:18.936Z,29.70
2022-11-24T06:16:45.696Z,35.17
2022-11-24T06:19:12.518Z,29.40
2022-11-24T06:21:39.278Z,27.77
2022-11-24T06:24:06.681Z,26.50
2022-11-24T06:26:33.599Z,32.03
2022-11-24T06:29:00.377Z,31.33
2022-11-24T06:31:27.374Z,33.87
2022-11-24T06:33:54.218Z,30.03
2022-11-24T06:36:20.909Z,30.37
2022-11-24T06:38:47.620Z,30.27
2022-11-24T06:41:16.002Z,33.10
2022-11-24T06:43:43.203Z,31.63
2022-11-24T06:46:10.382Z,32.83
2022-11-24T06:48:37.786Z,32.30
2022-11-24T06:51:08.028Z,32.57
2022-11-24T06:53:38.128Z,36.57
2022-11-24T06:56:16.407Z,33.10
2022-11-24T06:58:47.231Z,29.53
2022-11-24T07:01:23.189Z,35.67
2022-11-24T07:03:51.244Z,34.57
2022-11-24T07:06:19.288Z,32.20
2022-11-24T07:08:46.688Z,32.90
2022-11-24T07:11:21.292Z,32.30
2022-11-24T07:13:48.544Z,31.60
2022-11-24T07:16:21.739Z,35.90
2022-11-24T07:18:51.267Z,26.83
2022-11-24T07:21:20.300Z,30.63
2022-11-24T07:23:51.612Z,32.77
2022-11-24T07:26:19.083Z,34.23
2022-11-24T07:28:46.442Z,36.80
2022-11-24T07:31:16.267Z,29.83
2022-11-24T07:33:42.944Z,30.40
2022-11-24T07:36:09.929Z,31.23
2022-11-24T07:38:36.824Z,27.10
2022-11-24T07:41:09.659Z,30.20
2022-11-24T07:43:37.906Z,28.83
2022-11-24T07:46:06.441Z,29.40
2022-11-24T07:48:34.383Z,30.33
2022-11-24T07:51:03.138Z,29.20
2022-11-24T07:53:31.032Z,31.03
2022-11-24T07:56:02.394Z,28.03
2022-11-24T07:58:32.823Z,28.97
2022-11-24T08:01:00.473Z,34.20
2022-11-24T08:03:27.547Z,35.73
2022-11-24T08:06:23.189Z,34.90
2022-11-24T08:08:47.231Z,37.53
2022-11-24T08:11:17.351Z,39.37
2022-11-24T08:13:44.353Z,37.97
2022-11-24T08:16:14.851Z,41.03
2022-11-24T08:18:42.775Z,50.07
2022-11-24T08:21:13.886Z,37.30
2022-11-24T08:23:41.325Z,31.40
2022-11-24T08:26:16.644Z,35.10
2022-11-24T08:28:45.594Z,36.57
2022-11-24T08:31:16.724Z,32.53
2022-11-24T08:33:43.418Z,35.13
2022-11-24T08:36:13.534Z,33.03
2022-11-24T08:38:41.104Z,32.13
2022-11-24T08:41:11.583Z,34.53
2022-11-24T08:43:39.606Z,37.70
2022-11-24T08:46:12.384Z,42.23
2022-11-24T08:48:39.942Z,49.23
2022-11-24T08:51:13.682Z,38.47
2022-11-24T08:53:41.632Z,43.80
2022-11-24T08:56:10.561Z,46.57
2022-11-24T08:58:38.470Z,30.87
2022-11-24T09:01:13.453Z,35.27
2022-11-24T09:03:48.235Z,37.60
2022-11-24T09:06:25.407Z,33.63
2022-11-24T09:08:54.533Z,36.03
2022-11-24T09:11:22.223Z,35.40
2022-11-24T09:13:49.369Z,32.27
2022-11-24T09:16:25.772Z,31.43
2022-11-24T09:19:10.774Z,29.23
2022-11-24T09:21:38.845Z,34.87
2022-11-24T09:24:10.301Z,27.67
2022-11-24T09:26:41.889Z,33.30
2022-11-24T09:29:13.613Z,33.53
2022-11-24T09:31:41.019Z,31.57
2022-11-24T09:34:13.075Z,30.50
2022-11-24T09:36:40.011Z,31.27
2022-11-24T09:39:07.015Z,34.33
2022-11-24T09:42:14.229Z,29.17
2022-11-24T09:45:08.334Z,36.63
2022-11-24T09:48:01.478Z,30.03
2022-11-24T09:50:37.578Z,28.77
2022-11-24T09:53:22.923Z,31.53
2022-11-24T09:55:58.422Z,28.23
2022-11-24T09:58:40.958Z,31.80
2022-11-24T10:01:30.773Z,29.20
2022-11-24T10:04:04.254Z,30.53
2022-11-24T10:06:48.018Z,32.03
2022-11-24T10:09:40.093Z,31.87
2022-11-24T10:12:47.599Z,30.53
2022-11-24T10:15:34.173Z,33.77
2022-11-24T10:18:50.400Z,28.80
2022-11-24T10:21:41.581Z,25.37
2022-11-24T10:24:59.551Z,25.73
2022-11-24T10:27:38.667Z,34.03
2022-11-24T10:30:21.774Z,34.30
2022-11-24T10:33:06.147Z,29.60
2022-11-24T10:36:02.794Z,37.73
2022-11-24T10:38:37.900Z,25.73
2022-11-24T10:41:10.944Z,28.37
2022-11-24T10:43:40.321Z,34.30
2022-11-24T10:46:39.516Z,30.73
2022-11-24T10:49:06.489Z,31.23
2022-11-24T10:51:41.675Z,28.50
2022-11-24T10:54:22.289Z,32.57
2022-11-24T10:56:52.931Z,36.07
2022-11-24T10:59:25.346Z,31.10
2022-11-24T11:01:53.091Z,25.83
2022-11-24T11:04:34.820Z,30.63
2022-11-24T11:07:21.217Z,26.67
2022-11-24T11:09:48.621Z,25.97
2022-11-24T11:15:29.768Z,29.37
2022-11-24T11:18:01.762Z,31.53
2022-11-24T11:20:32.976Z,35.10
2022-11-24T11:23:16.764Z,32.77
2022-11-24T11:25:43.914Z,25.37
2022-11-24T11:28:30.895Z,29.37
2022-11-24T11:31:17.229Z,28.87
2022-11-24T11:34:06.296Z,34.77
2022-11-24T11:36:46.346Z,31.00
2022-11-24T11:39:32.757Z,30.70
2022-11-24T11:43:03.652Z,25.23
2022-11-24T11:45:31.852Z,29.10
2022-11-24T11:48:01.387Z,29.37
2022-11-24T11:51:21.843Z,27.17
2022-11-24T11:54:08.086Z,26.90
2022-11-24T11:56:45.007Z,29.83
2022-11-24T11:59:33.347Z,26.67
2022-11-24T12:02:32.333Z,25.97
2022-11-24T12:05:10.831Z,29.33
2022-11-24T12:07:56.633Z,32.50
2022-11-24T12:10:48.130Z,26.93
2022-11-24T12:13:36.083Z,26.70
2022-11-24T12:16:35.770Z,24.27
2022-11-24T12:19:39.803Z,34.23
2022-11-24T12:22:16.991Z,31.53
2022-11-24T12:25:09.778Z,25.90
2022-11-24T12:28:18.587Z,28.70
2022-11-24T12:31:06.493Z,28.93
2022-11-24T12:34:15.089Z,30.10
2022-11-24T12:37:19.789Z,38.23
2022-11-24T12:40:16.253Z,65.10
2022-11-24T12:43:02.353Z,53.93
2022-11-24T12:46:11.186Z,70.70
2022-11-24T12:49:02.693Z,36.33
2022-11-24T12:51:39.720Z,44.60
2022-11-24T12:54:14.365Z,27.00
2022-11-24T12:57:02.296Z,34.10
2022-11-24T12:59:35.122Z,32.47
2022-11-24T13:02:37.288Z,24.20
2022-11-24T13:05:33.099Z,28.37
2022-11-24T13:08:03.288Z,30.77
2022-11-24T13:10:57.877Z,26.80
2022-11-24T13:13:48.188Z,30.40
2022-11-24T13:19:13.650Z,28.83
2022-11-24T13:21:40.327Z,27.33
2022-11-24T13:24:25.401Z,26.03
2022-11-24T13:27:14.084Z,25.83
2022-11-24T13:29:51.660Z,28.47
2022-11-24T13:32:18.481Z,27.60
2022-11-24T13:34:54.911Z,29.27
2022-11-24T13:37:33.974Z,25.20
2022-11-24T13:40:31.701Z,27.47
2022-11-24T13:43:00.349Z,29.80
2022-11-24T13:45:39.680Z,27.93
2022-11-24T13:48:22.487Z,26.63
2022-11-24T13:50:49.509Z,27.67
2022-11-24T13:53:22.287Z,25.43
2022-11-24T13:56:25.015Z,26.70
2022-11-24T13:59:17.137Z,28.07
2022-11-24T14:01:46.712Z,31.93
2022-11-24T14:04:33.844Z,31.90
2022-11-24T14:07:11.891Z,30.83
2022-11-24T14:09:51.912Z,34.10
2022-11-24T14:12:26.587Z,45.03
2022-11-24T14:14:57.475Z,34.73
2022-11-24T14:17:28.374Z,31.33
2022-11-24T14:19:57.758Z,30.07
2022-11-24T14:22:40.289Z,39.03
2022-11-24T14:25:29.855Z,35.87
2022-11-24T14:27:57.384Z,30.47
2022-11-24T14:30:26.242Z,27.63
2022-11-24T14:32:58.089Z,26.83
2022-11-24T14:35:34.616Z,29.13
2022-11-24T14:38:03.731Z,32.93
2022-11-24T14:40:46.600Z,30.23
2022-11-24T14:43:29.257Z,33.33
2022-11-24T14:46:18.365Z,32.20
2022-11-24T14:48:51.471Z,29.53
2022-11-24T14:51:23.920Z,35.03
2022-11-24T14:53:55.171Z,34.50
2022-11-24T14:56:25.973Z,29.60
2022-11-24T14:58:54.486Z,27.63
2022-11-24T15:01:27.534Z,30.23
2022-11-24T15:04:39.361Z,37.50
2022-11-24T15:07:21.751Z,36.10
2022-11-24T15:09:53.903Z,38.37
2022-11-24T15:12:41.334Z,32.37
2022-11-24T15:15:14.004Z,38.87
2022-11-24T15:17:53.213Z,33.20
2022-11-24T15:20:37.444Z,32.10
2022-11-24T15:23:28.040Z,33.30
2022-11-24T15:25:57.314Z,36.50
2022-11-24T15:28:27.765Z,39.10
2022-11-24T15:30:59.247Z,40.13
2022-11-24T15:33:26.476Z,50.93
2022-11-24T15:35:53.125Z,67.63
2022-11-24T15:38:20.011Z,62.03
2022-11-24T15:40:50.592Z,58.07
2022-11-24T15:43:43.539Z,75.87
2022-11-24T15:46:10.503Z,71.80
2022-11-24T15:48:37.640Z,60.13
2022-11-24T15:51:14.939Z,52.67
2022-11-24T15:53:49.937Z,59.43
2022-11-24T15:56:33.835Z,53.07
2022-11-24T15:59:01.799Z,55.97
2022-11-24T16:01:34.259Z,56.60
2022-11-24T16:04:01.826Z,46.90
2022-11-24T16:06:28.603Z,45.07
2022-11-24T16:08:55.421Z,48.03
2022-11-24T16:11:23.159Z,42.10
2022-11-24T16:13:53.228Z,40.87
2022-11-24T16:16:23.581Z,46.70
2022-11-24T16:18:50.753Z,46.80
2022-11-24T16:21:17.773Z,54.13
2022-11-24T16:23:45.518Z,51.03
2022-11-24T16:26:12.285Z,46.53
2022-11-24T16:28:39.151Z,53.67
2022-11-24T16:31:06.046Z,46.37
2022-11-24T16:33:32.710Z,46.03
2022-11-24T16:35:59.450Z,54.57
2022-11-24T16:38:26.189Z,37.47
2022-11-24T16:40:56.241Z,45.20
2022-11-24T16:43:24.299Z,41.67
2022-11-24T16:46:15.969Z,40.80
2022-11-24T16:48:44.453Z,32.83
2022-11-24T16:51:12.356Z,40.37
2022-11-24T16:53:39.791Z,34.83
2022-11-24T16:56:07.305Z,33.03
2022-11-24T16:58:37.331Z,38.90
2022-11-24T17:01:07.598Z,36.63
2022-11-24T17:03:37.854Z,33.30
2022-11-24T17:06:07.549Z,46.23
2022-11-24T17:08:36.398Z,43.07
2022-11-24T17:11:13.986Z,38.63
2022-11-24T17:13:41.230Z,35.77
2022-11-24T17:16:11.869Z,40.33
2022-11-24T17:18:39.163Z,46.27
2022-11-24T17:21:10.869Z,42.30
2022-11-24T17:23:38.081Z,38.30
2022-11-24T17:26:12.425Z,35.30
2022-11-24T17:28:39.632Z,39.93
2022-11-24T17:31:17.906Z,52.63
2022-11-24T17:33:44.722Z,108.23
2022-11-24T17:36:11.429Z,63.57
2022-11-24T17:38:38.152Z,61.07
2022-11-24T17:41:05.192Z,49.00
2022-11-24T17:43:32.700Z,49.67
2022-11-24T17:46:03.001Z,42.63
2022-11-24T17:48:31.538Z,34.10
2022-11-24T17:51:10.264Z,38.37
2022-11-24T17:53:37.531Z,37.93
2022-11-24T17:56:04.764Z,43.00
2022-11-24T17:58:37.176Z,44.53
2022-11-24T18:01:07.743Z,45.40
2022-11-24T18:03:34.514Z,48.80
2022-11-24T18:06:19.833Z,53.47
2022-11-24T18:08:47.274Z,53.53
2022-11-24T18:11:24.643Z,53.30
2022-11-24T18:14:00.205Z,70.07
2022-11-24T18:16:29.652Z,63.43
2022-11-24T18:19:08.272Z,57.03
2022-11-24T18:21:37.921Z,61.47
2022-11-24T18:24:04.863Z,54.97
2022-11-24T18:26:31.585Z,50.07
2022-11-24T18:28:58.273Z,56.27
2022-11-24T18:31:26.147Z,61.60
2022-11-24T18:33:52.940Z,54.20
2022-11-24T18:36:23.579Z,61.67
2022-11-24T18:38:53.885Z,56.67
2022-11-24T18:41:21.514Z,62.57
2022-11-24T18:43:49.026Z,57.73
2022-11-24T18:46:19.342Z,59.10
2022-11-24T18:48:46.149Z,55.07
2022-11-24T18:51:14.590Z,59.67
2022-11-24T18:53:43.378Z,61.77
2022-11-24T18:56:16.642Z,60.27
2022-11-24T18:58:44.546Z,57.20
2022-11-24T19:01:20.348Z,58.73
2022-11-24T19:03:50.805Z,59.27
2022-11-24T19:06:28.939Z,49.90
2022-11-24T19:08:56.059Z,50.43
2022-11-24T19:11:29.625Z,49.87
2022-11-24T19:13:56.600Z,55.07
2022-11-24T19:16:24.390Z,63.13
2022-11-24T19:18:54.363Z,53.20
2022-11-24T19:21:22.903Z,55.37
2022-11-24T19:23:50.024Z,49.47
2022-11-24T19:26:17.374Z,76.00
2022-11-24T19:28:44.655Z,102.73
2022-11-24T19:31:14.503Z,112.70
2022-11-24T19:33:42.607Z,115.87
2022-11-24T19:36:16.355Z,95.17
2022-11-24T19:38:49.870Z,90.77
2022-11-24T19:41:19.389Z,114.83
2022-11-24T19:43:47.177Z,75.17
2022-11-24T19:46:17.726Z,91.07
2022-11-24T19:48:47.147Z,103.50
2022-11-24T19:51:17.354Z,79.07
2022-11-24T19:53:45.159Z,71.10
2022-11-24T19:56:22.386Z,55.63
2022-11-24T19:58:51.072Z,50.27
2022-11-24T20:01:30.153Z,66.80
2022-11-24T20:04:02.832Z,49.43
2022-11-24T20:06:41.952Z,48.20
2022-11-24T20:09:12.913Z,50.23
2022-11-24T20:11:39.949Z,44.77
2022-11-24T20:14:09.880Z,45.57
2022-11-24T20:16:36.872Z,47.77
2022-11-24T20:19:11.661Z,43.80
2022-11-24T20:21:41.412Z,52.30
2022-11-24T20:24:13.826Z,50.93
2022-11-24T20:26:51.250Z,54.10
2022-11-24T20:29:18.846Z,60.90
2022-11-24T20:31:49.538Z,61.50
2022-11-24T20:34:17.435Z,45.37
2022-11-24T20:36:46.026Z,43.20
2022-11-24T20:39:21.663Z,62.87
2022-11-24T20:41:48.629Z,37.20
2022-11-24T20:44:18.294Z,34.30
2022-11-24T20:46:46.548Z,32.17
2022-11-24T20:49:17.320Z,36.70
2022-11-24T20:51:46.869Z,37.03
2022-11-24T20:54:16.835Z,32.47
2022-11-24T20:56:44.622Z,38.50
2022-11-24T20:59:15.756Z,39.20
2022-11-24T21:01:45.387Z,38.23
2022-11-24T21:04:20.438Z,35.67
2022-11-24T21:06:47.784Z,39.83
2022-11-24T21:09:14.536Z,39.67
2022-11-24T21:11:41.371Z,37.63
2022-11-24T21:14:08.736Z,38.30
2022-11-24T21:16:38.998Z,32.83
2022-11-24T21:19:14.064Z,33.27
2022-11-24T21:21:42.467Z,29.53
2022-11-24T21:24:18.049Z,28.10
2022-11-24T21:26:50.327Z,28.77
2022-11-24T21:29:19.163Z,35.73
2022-11-24T21:31:46.223Z,31.17
2022-11-24T21:34:18.545Z,29.97
2022-11-24T21:36:45.394Z,28.63
2022-11-24T21:39:14.287Z,35.07
2022-11-24T21:41:41.867Z,30.33
2022-11-24T21:44:10.372Z,31.80
2022-11-24T21:46:43.929Z,30.07
2022-11-24T21:49:13.193Z,33.17
2022-11-24T21:51:39.993Z,27.77
2022-11-24T21:54:06.949Z,26.30
2022-11-24T21:56:33.632Z,23.70
2022-11-24T21:59:00.310Z,32.03
2022-11-24T22:01:28.725Z,28.97
2022-11-24T22:03:55.912Z,29.77
2022-11-24T22:06:23.268Z,36.30
2022-11-24T22:08:50.150Z,29.77
2022-11-24T22:11:23.675Z,27.17
2022-11-24T22:13:51.441Z,28.30
2022-11-24T22:16:21.306Z,29.27
2022-11-24T22:18:49.013Z,26.53
2022-11-24T22:21:19.697Z,22.90
2022-11-24T22:23:50.024Z,26.43
2022-11-24T22:26:20.770Z,29.63
2022-11-24T22:28:48.198Z,24.13
2022-11-24T22:31:22.235Z,25.17
2022-11-24T22:33:50.232Z,25.67
2022-11-24T22:36:20.740Z,25.23
2022-11-24T22:38:52.433Z,21.93
2022-11-24T22:41:19.094Z,24.37
2022-11-24T22:43:46.306Z,26.00
2022-11-24T22:46:18.985Z,27.90
2022-11-24T22:48:47.772Z,22.10
2022-11-24T22:51:24.868Z,33.77
2022-11-24T22:53:54.958Z,52.43
2022-11-24T22:56:22.307Z,60.90
2022-11-24T22:58:49.724Z,49.70
2022-11-24T23:01:24.342Z,48.93
2022-11-24T23:03:54.308Z,49.23
2022-11-24T23:06:27.068Z,46.17
2022-11-24T23:08:55.413Z,43.17
2022-11-24T23:11:31.595Z,41.37
2022-11-24T23:14:02.927Z,39.40
2022-11-24T23:16:30.116Z,38.63
2022-11-24T23:18:57.439Z,35.40
2022-11-24T23:21:28.282Z,32.37
2022-11-24T23:23:55.853Z,27.67
2022-11-24T23:26:32.616Z,25.30
2022-11-24T23:28:59.897Z,24.33
2022-11-24T23:31:28.782Z,31.83
2022-11-24T23:34:01.988Z,26.00
2022-11-24T23:36:30.435Z,21.70
2022-11-24T23:39:03.272Z,23.03
2022-11-24T23:41:31.427Z,26.17
2022-11-24T23:43:58.888Z,24.17
2022-11-24T23:46:27.207Z,22.90
2022-11-24T23:48:55.546Z,23.57
2022-11-24T23:51:32.216Z,28.33
2022-11-24T23:54:00.201Z,21.87
2022-11-24T23:56:33.094Z,21.80
2022-11-24T23:59:02.322Z,26.93
